sensor_id;sensor_type;location;lat;lon;timestamp;noise_LAeq;noise_LA_min;noise_LA_max;noise_LA01;noise_LA95
37279;Laerm;7458;49.002;8.472;2023-01-29T00:01:52;46.05;37.52;57.51;;
37279;Laerm;7458;49.002;8.472;2023-01-29T00:04:18;58.85;38.47;75.14;;
37279;Laerm;7458;49.002;8.472;2023-01-29T00:06:44;46.64;38.21;57.20;;
37279;Laerm;7458;49.002;8.472;2023-01-29T00:09:11;49.29;38.37;64.71;;
37279;Laerm;7458;49.002;8.472;2023-01-29T00:11:38;58.72;37.70;75.77;;
37279;Laerm;7458;49.002;8.472;2023-01-29T00:14:05;52.08;38.52;70.73;;
37279;Laerm;7458;49.002;8.472;2023-01-29T00:16:31;51.52;36.91;75.88;;
37279;Laerm;7458;49.002;8.472;2023-01-29T00:19:00;59.48;39.34;75.49;;
37279;Laerm;7458;49.002;8.472;2023-01-29T00:21:26;63.40;37.12;75.24;;
37279;Laerm;7458;49.002;8.472;2023-01-29T00:23:53;47.54;38.21;58.71;;
37279;Laerm;7458;49.002;8.472;2023-01-29T00:26:20;46.54;38.05;59.79;;
37279;Laerm;7458;49.002;8.472;2023-01-29T00:28:45;54.52;37.32;75.88;;
37279;Laerm;7458;49.002;8.472;2023-01-29T00:31:21;60.04;38.52;75.63;;
37279;Laerm;7458;49.002;8.472;2023-01-29T00:33:48;46.50;36.91;57.20;;
37279;Laerm;7458;49.002;8.472;2023-01-29T00:36:18;61.25;37.52;75.55;;
37279;Laerm;7458;49.002;8.472;2023-01-29T00:38:44;46.41;37.70;56.95;;
37279;Laerm;7458;49.002;8.472;2023-01-29T00:41:20;46.49;38.67;56.74;;
37279;Laerm;7458;49.002;8.472;2023-01-29T00:44:06;61.37;38.37;75.54;;
37279;Laerm;7458;49.002;8.472;2023-01-29T00:46:50;50.57;38.52;77.38;;
37279;Laerm;7458;49.002;8.472;2023-01-29T00:49:16;48.12;37.70;58.74;;
37279;Laerm;7458;49.002;8.472;2023-01-29T00:51:42;52.26;38.81;70.45;;
37279;Laerm;7458;49.002;8.472;2023-01-29T00:54:08;53.26;39.46;73.44;;
37279;Laerm;7458;49.002;8.472;2023-01-29T00:56:35;56.35;35.86;75.18;;
37279;Laerm;7458;49.002;8.472;2023-01-29T00:59:02;51.42;37.70;70.38;;
37279;Laerm;7458;49.002;8.472;2023-01-29T01:01:28;54.04;37.70;75.29;;
37279;Laerm;7458;49.002;8.472;2023-01-29T01:04:13;62.79;38.95;75.70;;
37279;Laerm;7458;49.002;8.472;2023-01-29T01:06:40;47.26;36.69;57.79;;
37279;Laerm;7458;49.002;8.472;2023-01-29T01:09:08;46.32;36.91;59.45;;
37279;Laerm;7458;49.002;8.472;2023-01-29T01:11:53;58.16;37.52;75.99;;
37279;Laerm;7458;49.002;8.472;2023-01-29T01:14:20;48.31;37.35;60.01;;
37279;Laerm;7458;49.002;8.472;2023-01-29T01:16:47;58.95;36.91;75.55;;
37279;Laerm;7458;49.002;8.472;2023-01-29T01:19:14;63.64;37.88;75.77;;
37279;Laerm;7458;49.002;8.472;2023-01-29T01:21:41;47.95;37.12;70.06;;
37279;Laerm;7458;49.002;8.472;2023-01-29T01:24:13;53.12;37.70;71.18;;
37279;Laerm;7458;49.002;8.472;2023-01-29T01:26:39;46.82;40.03;57.89;;
37279;Laerm;7458;49.002;8.472;2023-01-29T01:29:05;46.14;36.20;57.30;;
37279;Laerm;7458;49.002;8.472;2023-01-29T01:31:30;46.37;35.94;59.27;;
37279;Laerm;7458;49.002;8.472;2023-01-29T01:33:56;56.55;34.69;75.34;;
37279;Laerm;7458;49.002;8.472;2023-01-29T01:36:22;57.53;36.91;75.42;;
37279;Laerm;7458;49.002;8.472;2023-01-29T01:38:48;46.82;35.66;57.27;;
37279;Laerm;7458;49.002;8.472;2023-01-29T01:41:18;59.06;36.45;75.47;;
37279;Laerm;7458;49.002;8.472;2023-01-29T01:43:49;48.70;36.91;61.47;;
37279;Laerm;7458;49.002;8.472;2023-01-29T01:46:16;63.46;38.05;75.80;;
37279;Laerm;7458;49.002;8.472;2023-01-29T01:48:43;48.09;38.21;57.24;;
37279;Laerm;7458;49.002;8.472;2023-01-29T01:51:09;46.43;36.91;59.01;;
37279;Laerm;7458;49.002;8.472;2023-01-29T01:53:42;46.80;37.52;65.03;;
37279;Laerm;7458;49.002;8.472;2023-01-29T01:56:14;46.31;35.66;60.32;;
37279;Laerm;7458;49.002;8.472;2023-01-29T01:58:58;52.81;36.20;76.23;;
37279;Laerm;7458;49.002;8.472;2023-01-29T02:01:25;47.16;38.81;57.54;;
37279;Laerm;7458;49.002;8.472;2023-01-29T02:04:08;57.72;37.12;76.21;;
37279;Laerm;7458;49.002;8.472;2023-01-29T02:06:54;62.91;38.67;75.32;;
37279;Laerm;7458;49.002;8.472;2023-01-29T02:09:53;56.80;38.21;87.74;;
37279;Laerm;7458;49.002;8.472;2023-01-29T02:12:23;61.59;39.58;75.62;;
37279;Laerm;7458;49.002;8.472;2023-01-29T02:14:50;63.11;36.69;76.00;;
37279;Laerm;7458;49.002;8.472;2023-01-29T02:17:18;51.74;36.45;69.46;;
37279;Laerm;7458;49.002;8.472;2023-01-29T02:23:15;63.01;37.52;75.45;;
37279;Laerm;7458;49.002;8.472;2023-01-29T02:26:32;62.37;35.94;75.61;;
37279;Laerm;7458;49.002;8.472;2023-01-29T02:29:27;45.21;35.66;57.49;;
37279;Laerm;7458;49.002;8.472;2023-01-29T02:32:24;61.14;34.69;75.77;;
37279;Laerm;7458;49.002;8.472;2023-01-29T02:35:24;51.33;37.70;75.96;;
37279;Laerm;7458;49.002;8.472;2023-01-29T02:48:23;46.59;36.10;57.81;;
37279;Laerm;7458;49.002;8.472;2023-01-29T02:51:04;60.70;34.69;75.44;;
37279;Laerm;7458;49.002;8.472;2023-01-29T02:53:56;58.27;35.04;76.23;;
37279;Laerm;7458;49.002;8.472;2023-01-29T02:56:47;62.41;37.35;75.96;;
37279;Laerm;7458;49.002;8.472;2023-01-29T02:59:25;46.37;35.94;57.87;;
37279;Laerm;7458;49.002;8.472;2023-01-29T03:02:07;62.29;34.31;75.74;;
37279;Laerm;7458;49.002;8.472;2023-01-29T03:04:40;58.79;35.66;76.30;;
37279;Laerm;7458;49.002;8.472;2023-01-29T03:07:17;61.22;35.66;75.96;;
37279;Laerm;7458;49.002;8.472;2023-01-29T03:10:15;55.89;35.36;76.46;;
37279;Laerm;7458;49.002;8.472;2023-01-29T03:12:46;53.65;33.90;76.29;;
37279;Laerm;7458;49.002;8.472;2023-01-29T03:15:23;57.02;34.31;76.32;;
37279;Laerm;7458;49.002;8.472;2023-01-29T03:17:56;41.56;35.66;47.28;;
37279;Laerm;7458;49.002;8.472;2023-01-29T03:20:34;63.71;36.91;75.34;;
37279;Laerm;7458;49.002;8.472;2023-01-29T03:23:12;46.37;35.94;57.93;;
37279;Laerm;7458;49.002;8.472;2023-01-29T03:25:41;63.37;35.94;75.54;;
37279;Laerm;7458;49.002;8.472;2023-01-29T03:28:29;62.83;33.90;75.60;;
37279;Laerm;7458;49.002;8.472;2023-01-29T03:31:17;52.86;38.21;76.03;;
37279;Laerm;7458;49.002;8.472;2023-01-29T03:34:15;56.73;35.66;76.65;;
37279;Laerm;7458;49.002;8.472;2023-01-29T03:37:02;56.27;34.69;75.91;;
37279;Laerm;7458;49.002;8.472;2023-01-29T03:39:32;63.79;34.31;75.88;;
37279;Laerm;7458;49.002;8.472;2023-01-29T03:50:57;55.35;33.44;76.74;;
37279;Laerm;7458;49.002;8.472;2023-01-29T03:53:54;63.06;35.94;76.18;;
37279;Laerm;7458;49.002;8.472;2023-01-29T03:59:40;60.80;34.69;76.16;;
37279;Laerm;7458;49.002;8.472;2023-01-29T04:02:17;62.40;36.20;76.06;;
37279;Laerm;7458;49.002;8.472;2023-01-29T04:04:57;56.18;35.04;76.15;;
37279;Laerm;7458;49.002;8.472;2023-01-29T04:07:25;62.12;34.69;76.36;;
37279;Laerm;7458;49.002;8.472;2023-01-29T04:10:20;63.09;33.44;75.79;;
37279;Laerm;7458;49.002;8.472;2023-01-29T04:12:58;64.02;36.69;75.57;;
37279;Laerm;7458;49.002;8.472;2023-01-29T04:15:30;53.39;35.04;76.12;;
37279;Laerm;7458;49.002;8.472;2023-01-29T04:17:59;63.23;33.44;75.58;;
37279;Laerm;7458;49.002;8.472;2023-01-29T04:20:26;46.08;33.90;60.57;;
37279;Laerm;7458;49.002;8.472;2023-01-29T04:22:51;60.81;37.12;75.52;;
37279;Laerm;7458;49.002;8.472;2023-01-29T04:25:26;54.91;35.94;76.75;;
37279;Laerm;7458;49.002;8.472;2023-01-29T04:28:20;49.56;35.36;76.14;;
37279;Laerm;7458;49.002;8.472;2023-01-29T04:30:52;63.59;35.94;75.59;;
37279;Laerm;7458;49.002;8.472;2023-01-29T04:33:49;46.77;36.69;58.04;;
37279;Laerm;7458;49.002;8.472;2023-01-29T04:36:55;56.92;35.36;76.29;;
37279;Laerm;7458;49.002;8.472;2023-01-29T04:39:55;61.98;34.69;76.27;;
37279;Laerm;7458;49.002;8.472;2023-01-29T04:47:59;58.23;36.20;75.90;;
37279;Laerm;7458;49.002;8.472;2023-01-29T04:50:37;58.91;35.94;75.95;;
37279;Laerm;7458;49.002;8.472;2023-01-29T04:53:24;61.12;37.32;76.30;;
37279;Laerm;7458;49.002;8.472;2023-01-29T04:56:18;63.37;37.32;75.74;;
37279;Laerm;7458;49.002;8.472;2023-01-29T04:59:01;58.67;36.91;80.44;;
37279;Laerm;7458;49.002;8.472;2023-01-29T05:01:30;63.20;35.66;75.60;;
37279;Laerm;7458;49.002;8.472;2023-01-29T05:04:02;63.93;38.95;75.95;;
37279;Laerm;7458;49.002;8.472;2023-01-29T05:06:31;46.56;36.91;58.00;;
37279;Laerm;7458;49.002;8.472;2023-01-29T05:09:00;57.77;36.69;75.87;;
37279;Laerm;7458;49.002;8.472;2023-01-29T05:11:31;61.94;37.12;75.32;;
37279;Laerm;7458;49.002;8.472;2023-01-29T05:14:01;60.55;38.21;76.31;;
37279;Laerm;7458;49.002;8.472;2023-01-29T05:16:34;52.11;36.91;76.50;;
37279;Laerm;7458;49.002;8.472;2023-01-29T05:19:09;63.07;36.45;76.43;;
37279;Laerm;7458;49.002;8.472;2023-01-29T05:21:37;63.40;35.66;75.81;;
37279;Laerm;7458;49.002;8.472;2023-01-29T05:24:25;59.43;35.04;75.61;;
37279;Laerm;7458;49.002;8.472;2023-01-29T05:26:53;55.98;34.69;75.97;;
37279;Laerm;7458;49.002;8.472;2023-01-29T05:29:45;62.14;34.31;75.77;;
37279;Laerm;7458;49.002;8.472;2023-01-29T05:32:12;61.14;34.69;75.61;;
37279;Laerm;7458;49.002;8.472;2023-01-29T05:34:38;64.09;34.69;75.74;;
37279;Laerm;7458;49.002;8.472;2023-01-29T05:37:04;63.64;34.34;75.94;;
37279;Laerm;7458;49.002;8.472;2023-01-29T05:39:30;53.59;35.04;73.04;;
37279;Laerm;7458;49.002;8.472;2023-01-29T05:41:56;59.38;35.04;75.32;;
37279;Laerm;7458;49.002;8.472;2023-01-29T05:44:22;58.10;34.69;76.27;;
37279;Laerm;7458;49.002;8.472;2023-01-29T05:46:49;47.21;37.12;58.44;;
37279;Laerm;7458;49.002;8.472;2023-01-29T05:49:16;60.67;34.31;75.37;;
37279;Laerm;7458;49.002;8.472;2023-01-29T05:51:42;58.71;37.12;76.21;;
37279;Laerm;7458;49.002;8.472;2023-01-29T05:54:11;47.85;38.21;58.64;;
37279;Laerm;7458;49.002;8.472;2023-01-29T05:56:38;58.93;37.88;75.93;;
37279;Laerm;7458;49.002;8.472;2023-01-29T05:59:04;64.52;35.66;76.01;;
37279;Laerm;7458;49.002;8.472;2023-01-29T06:01:30;64.08;37.52;75.88;;
37279;Laerm;7458;49.002;8.472;2023-01-29T06:03:56;46.35;37.12;57.50;;
37279;Laerm;7458;49.002;8.472;2023-01-29T06:06:21;62.52;37.12;83.15;;
37279;Laerm;7458;49.002;8.472;2023-01-29T06:08:47;58.62;40.13;76.13;;
37279;Laerm;7458;49.002;8.472;2023-01-29T06:11:14;47.93;39.08;63.37;;
37279;Laerm;7458;49.002;8.472;2023-01-29T06:13:43;58.87;38.05;76.36;;
37279;Laerm;7458;49.002;8.472;2023-01-29T06:16:11;60.34;37.52;75.81;;
37279;Laerm;7458;49.002;8.472;2023-01-29T06:18:38;63.28;38.95;76.02;;
37279;Laerm;7458;49.002;8.472;2023-01-29T06:21:07;51.79;38.95;76.53;;
37279;Laerm;7458;49.002;8.472;2023-01-29T06:23:33;60.26;37.88;76.01;;
37279;Laerm;7458;49.002;8.472;2023-01-29T06:26:05;59.94;37.88;76.43;;
37279;Laerm;7458;49.002;8.472;2023-01-29T06:28:31;61.80;37.32;75.77;;
37279;Laerm;7458;49.002;8.472;2023-01-29T06:30:59;63.21;38.67;76.12;;
37279;Laerm;7458;49.002;8.472;2023-01-29T06:33:25;59.87;38.21;76.25;;
37279;Laerm;7458;49.002;8.472;2023-01-29T06:35:56;61.77;38.21;76.28;;
37279;Laerm;7458;49.002;8.472;2023-01-29T06:38:23;57.49;38.05;76.26;;
37279;Laerm;7458;49.002;8.472;2023-01-29T06:40:49;60.57;41.06;76.01;;
37279;Laerm;7458;49.002;8.472;2023-01-29T06:43:15;62.26;39.58;76.29;;
37279;Laerm;7458;49.002;8.472;2023-01-29T06:48:17;64.06;39.21;76.31;;
37279;Laerm;7458;49.002;8.472;2023-01-29T06:50:44;64.20;39.92;76.37;;
37279;Laerm;7458;49.002;8.472;2023-01-29T06:53:10;58.77;37.52;75.87;;
37279;Laerm;7458;49.002;8.472;2023-01-29T06:55:36;48.57;38.37;70.58;;
37279;Laerm;7458;49.002;8.472;2023-01-29T06:58:10;63.76;38.21;75.87;;
37279;Laerm;7458;49.002;8.472;2023-01-29T07:00:37;59.56;38.81;76.44;;
37279;Laerm;7458;49.002;8.472;2023-01-29T07:03:03;60.20;38.81;76.30;;
37279;Laerm;7458;49.002;8.472;2023-01-29T07:05:30;58.76;39.21;76.02;;
37279;Laerm;7458;49.002;8.472;2023-01-29T07:07:56;63.93;39.34;75.58;;
37279;Laerm;7458;49.002;8.472;2023-01-29T07:10:22;47.57;39.81;58.80;;
37279;Laerm;7458;49.002;8.472;2023-01-29T07:12:48;60.78;40.33;76.57;;
37279;Laerm;7458;49.002;8.472;2023-01-29T07:15:14;59.19;40.03;76.21;;
37279;Laerm;7458;49.002;8.472;2023-01-29T07:17:54;62.74;39.46;75.96;;
37279;Laerm;7458;49.002;8.472;2023-01-29T07:20:20;60.34;39.92;76.16;;
37279;Laerm;7458;49.002;8.472;2023-01-29T07:22:46;60.54;39.70;76.39;;
37279;Laerm;7458;49.002;8.472;2023-01-29T07:25:11;58.51;40.71;76.30;;
37279;Laerm;7458;49.002;8.472;2023-01-29T07:27:37;56.53;40.13;76.22;;
37279;Laerm;7458;49.002;8.472;2023-01-29T07:30:03;62.00;39.70;75.63;;
37279;Laerm;7458;49.002;8.472;2023-01-29T07:32:29;60.54;40.80;76.19;;
37279;Laerm;7458;49.002;8.472;2023-01-29T07:34:55;61.57;38.95;75.86;;
37279;Laerm;7458;49.002;8.472;2023-01-29T07:37:20;64.05;38.37;75.74;;
37279;Laerm;7458;49.002;8.472;2023-01-29T07:39:46;48.03;38.37;62.34;;
37279;Laerm;7458;49.002;8.472;2023-01-29T07:42:12;63.77;40.71;75.28;;
37279;Laerm;7458;49.002;8.472;2023-01-29T07:44:37;47.09;38.37;58.20;;
37279;Laerm;7458;49.002;8.472;2023-01-29T07:47:03;63.74;37.88;75.27;;
37279;Laerm;7458;49.002;8.472;2023-01-29T07:49:29;63.80;39.08;75.23;;
37279;Laerm;7458;49.002;8.472;2023-01-29T07:51:54;51.73;40.18;69.58;;
37279;Laerm;7458;49.002;8.472;2023-01-29T07:54:20;50.10;38.67;65.84;;
37279;Laerm;7458;49.002;8.472;2023-01-29T07:56:46;59.90;38.67;76.53;;
37279;Laerm;7458;49.002;8.472;2023-01-29T07:59:12;58.16;38.81;76.13;;
37279;Laerm;7458;49.002;8.472;2023-01-29T08:01:37;52.18;40.03;71.50;;
37279;Laerm;7458;49.002;8.472;2023-01-29T08:04:03;57.46;36.91;76.34;;
37279;Laerm;7458;49.002;8.472;2023-01-29T08:06:29;62.59;37.70;75.27;;
37279;Laerm;7458;49.002;8.472;2023-01-29T08:08:54;52.16;38.81;71.61;;
37279;Laerm;7458;49.002;8.472;2023-01-29T08:11:22;56.19;40.13;76.29;;
37279;Laerm;7458;49.002;8.472;2023-01-29T08:13:47;61.60;36.69;75.97;;
37279;Laerm;7458;49.002;8.472;2023-01-29T08:16:13;46.62;36.69;57.49;;
37279;Laerm;7458;49.002;8.472;2023-01-29T08:18:42;50.79;36.69;67.45;;
37279;Laerm;7458;49.002;8.472;2023-01-29T08:21:12;61.82;40.23;75.30;;
37279;Laerm;7458;49.002;8.472;2023-01-29T08:23:37;47.44;37.32;59.00;;
37279;Laerm;7458;49.002;8.472;2023-01-29T08:26:04;64.08;36.45;75.52;;
37279;Laerm;7458;49.002;8.472;2023-01-29T08:28:30;63.91;37.52;75.06;;
37279;Laerm;7458;49.002;8.472;2023-01-29T08:30:55;51.84;39.81;69.60;;
37279;Laerm;7458;49.002;8.472;2023-01-29T08:33:22;62.92;36.91;75.46;;
37279;Laerm;7458;49.002;8.472;2023-01-29T08:35:49;58.53;36.91;75.93;;
37279;Laerm;7458;49.002;8.472;2023-01-29T08:38:16;63.69;37.12;75.31;;
37279;Laerm;7458;49.002;8.472;2023-01-29T08:40:42;63.34;40.43;75.92;;
37279;Laerm;7458;49.002;8.472;2023-01-29T08:43:11;62.51;36.91;75.57;;
37279;Laerm;7458;49.002;8.472;2023-01-29T08:45:41;55.95;38.81;71.89;;
37279;Laerm;7458;49.002;8.472;2023-01-29T08:48:09;64.23;39.92;76.24;;
37279;Laerm;7458;49.002;8.472;2023-01-29T08:50:36;52.35;39.58;67.45;;
37279;Laerm;7458;49.002;8.472;2023-01-29T08:53:04;47.64;40.53;58.48;;
37279;Laerm;7458;49.002;8.472;2023-01-29T08:55:38;48.04;40.43;63.16;;
37279;Laerm;7458;49.002;8.472;2023-01-29T08:58:06;48.16;41.75;62.94;;
37279;Laerm;7458;49.002;8.472;2023-01-29T09:00:33;51.73;37.88;70.41;;
37279;Laerm;7458;49.002;8.472;2023-01-29T09:03:00;53.93;37.52;71.13;;
37279;Laerm;7458;49.002;8.472;2023-01-29T09:05:27;52.55;37.12;71.23;;
37279;Laerm;7458;49.002;8.472;2023-01-29T09:07:55;51.26;37.32;68.89;;
37279;Laerm;7458;49.002;8.472;2023-01-29T09:10:21;46.20;36.91;55.53;;
37279;Laerm;7458;49.002;8.472;2023-01-29T09:12:47;46.88;37.88;71.13;;
37279;Laerm;7458;49.002;8.472;2023-01-29T09:15:13;52.79;38.52;77.93;;
37279;Laerm;7458;49.002;8.472;2023-01-29T09:17:38;51.88;41.06;70.10;;
37279;Laerm;7458;49.002;8.472;2023-01-29T09:20:06;51.48;39.46;70.22;;
37279;Laerm;7458;49.002;8.472;2023-01-29T09:22:33;53.62;38.81;69.85;;
37279;Laerm;7458;49.002;8.472;2023-01-29T09:24:59;49.53;38.52;75.47;;
37279;Laerm;7458;49.002;8.472;2023-01-29T09:27:25;56.13;40.71;73.09;;
37279;Laerm;7458;49.002;8.472;2023-01-29T09:29:51;55.74;38.21;75.64;;
37279;Laerm;7458;49.002;8.472;2023-01-29T09:32:16;48.60;38.21;65.25;;
37279;Laerm;7458;49.002;8.472;2023-01-29T09:34:42;56.56;38.05;72.27;;
37279;Laerm;7458;49.002;8.472;2023-01-29T09:37:08;55.71;40.53;72.77;;
37279;Laerm;7458;49.002;8.472;2023-01-29T09:39:34;52.18;35.66;69.42;;
37279;Laerm;7458;49.002;8.472;2023-01-29T09:45:05;46.48;37.12;76.29;;
37279;Laerm;7458;49.002;8.472;2023-01-29T09:47:38;47.96;40.43;60.68;;
37279;Laerm;7458;49.002;8.472;2023-01-29T09:50:06;48.31;37.12;63.20;;
37279;Laerm;7458;49.002;8.472;2023-01-29T09:52:58;50.71;37.52;68.79;;
37279;Laerm;7458;49.002;8.472;2023-01-29T09:55:31;48.32;40.23;64.80;;
37279;Laerm;7458;49.002;8.472;2023-01-29T10:06:30;54.07;40.13;67.50;;
37279;Laerm;7458;49.002;8.472;2023-01-29T10:15:33;55.71;38.37;78.11;;
37279;Laerm;7458;49.002;8.472;2023-01-29T10:21:23;46.19;39.08;59.51;;
37279;Laerm;7458;49.002;8.472;2023-01-29T10:24:47;49.90;38.21;65.94;;
37279;Laerm;7458;49.002;8.472;2023-01-29T10:27:17;56.20;40.53;71.86;;
37279;Laerm;7458;49.002;8.472;2023-01-29T10:29:47;55.12;38.21;71.26;;
37279;Laerm;7458;49.002;8.472;2023-01-29T10:32:22;55.86;39.46;79.99;;
37279;Laerm;7458;49.002;8.472;2023-01-29T10:35:23;45.69;38.21;53.94;;
37279;Laerm;7458;49.002;8.472;2023-01-29T10:37:55;51.07;39.21;69.11;;
37279;Laerm;7458;49.002;8.472;2023-01-29T10:46:53;46.91;40.23;56.77;;
37279;Laerm;7458;49.002;8.472;2023-01-29T10:58:08;45.92;40.43;55.22;;
37279;Laerm;7458;49.002;8.472;2023-01-29T11:00:41;47.73;40.23;62.44;;
37279;Laerm;7458;49.002;8.472;2023-01-29T11:06:03;52.80;39.34;69.43;;
37279;Laerm;7458;49.002;8.472;2023-01-29T11:11:49;56.35;40.03;77.64;;
37279;Laerm;7458;49.002;8.472;2023-01-29T11:14:26;47.98;40.62;66.06;;
37279;Laerm;7458;49.002;8.472;2023-01-29T11:16:53;53.76;39.21;66.91;;
37279;Laerm;7458;49.002;8.472;2023-01-29T11:19:41;55.45;38.05;71.69;;
37279;Laerm;7458;49.002;8.472;2023-01-29T11:24:42;54.58;43.09;72.37;;
37279;Laerm;7458;49.002;8.472;2023-01-29T11:27:23;57.59;37.70;72.59;;
37279;Laerm;7458;49.002;8.472;2023-01-29T11:29:52;52.86;37.88;67.66;;
37279;Laerm;7458;49.002;8.472;2023-01-29T11:35:05;52.68;36.91;69.54;;
37279;Laerm;7458;49.002;8.472;2023-01-29T11:37:45;56.75;35.04;81.50;;
37279;Laerm;7458;49.002;8.472;2023-01-29T11:40:34;56.69;38.67;80.73;;
37279;Laerm;7458;49.002;8.472;2023-01-29T11:45:56;50.14;38.52;66.38;;
37279;Laerm;7458;49.002;8.472;2023-01-29T11:48:46;51.28;38.37;70.31;;
37279;Laerm;7458;49.002;8.472;2023-01-29T11:51:26;58.50;40.80;78.91;;
37279;Laerm;7458;49.002;8.472;2023-01-29T11:54:00;66.30;38.67;86.41;;
37279;Laerm;7458;49.002;8.472;2023-01-29T11:56:46;45.46;39.34;58.12;;
37279;Laerm;7458;49.002;8.472;2023-01-29T12:05:06;62.00;38.81;73.84;;
37279;Laerm;7458;49.002;8.472;2023-01-29T12:07:42;63.26;38.95;78.10;;
37279;Laerm;7458;49.002;8.472;2023-01-29T12:15:42;61.39;40.23;73.85;;
37279;Laerm;7458;49.002;8.472;2023-01-29T12:30:17;62.08;41.68;74.43;;
37279;Laerm;7458;49.002;8.472;2023-01-29T12:33:23;62.20;42.93;76.00;;
37279;Laerm;7458;49.002;8.472;2023-01-29T12:36:18;62.17;41.46;73.95;;
37279;Laerm;7458;49.002;8.472;2023-01-29T12:38:46;62.46;41.46;74.16;;
37279;Laerm;7458;49.002;8.472;2023-01-29T12:43:57;62.39;41.38;74.11;;
37279;Laerm;7458;49.002;8.472;2023-01-29T12:46:30;62.65;40.62;74.72;;
37279;Laerm;7458;49.002;8.472;2023-01-29T12:49:02;62.77;41.22;75.06;;
37279;Laerm;7458;49.002;8.472;2023-01-29T12:51:37;62.76;42.41;74.33;;
37279;Laerm;7458;49.002;8.472;2023-01-29T12:54:08;62.84;41.38;74.44;;
37279;Laerm;7458;49.002;8.472;2023-01-29T12:56:45;63.32;42.98;74.66;;
37279;Laerm;7458;49.002;8.472;2023-01-29T12:59:46;62.43;41.68;74.28;;
37279;Laerm;7458;49.002;8.472;2023-01-29T13:02:37;63.02;42.53;77.56;;
37279;Laerm;7458;49.002;8.472;2023-01-29T13:05:27;62.05;41.30;74.08;;
37279;Laerm;7458;49.002;8.472;2023-01-29T13:08:04;63.00;41.96;74.42;;
37279;Laerm;7458;49.002;8.472;2023-01-29T13:10:43;62.74;42.98;73.95;;
37279;Laerm;7458;49.002;8.472;2023-01-29T13:13:33;61.95;42.16;74.53;;
37279;Laerm;7458;49.002;8.472;2023-01-29T13:16:06;62.52;40.33;74.27;;
37279;Laerm;7458;49.002;8.472;2023-01-29T13:18:55;61.79;40.89;73.93;;
37279;Laerm;7458;49.002;8.472;2023-01-29T13:21:42;62.77;42.03;74.19;;
37279;Laerm;7458;49.002;8.472;2023-01-29T13:24:16;62.51;41.06;73.93;;
37279;Laerm;7458;49.002;8.472;2023-01-29T13:26:47;62.60;41.06;74.47;;
37279;Laerm;7458;49.002;8.472;2023-01-29T13:29:27;62.55;42.59;74.72;;
37279;Laerm;7458;49.002;8.472;2023-01-29T13:31:55;63.01;41.61;74.97;;
37279;Laerm;7458;49.002;8.472;2023-01-29T13:34:34;63.04;41.22;74.37;;
37279;Laerm;7458;49.002;8.472;2023-01-29T13:37:18;62.49;40.43;78.04;;
37279;Laerm;7458;49.002;8.472;2023-01-29T13:39:51;62.89;43.04;73.97;;
37279;Laerm;7458;49.002;8.472;2023-01-29T13:42:46;62.04;41.82;74.08;;
37279;Laerm;7458;49.002;8.472;2023-01-29T13:45:41;61.83;41.68;74.39;;
37279;Laerm;7458;49.002;8.472;2023-01-29T13:48:29;61.70;40.98;73.82;;
37279;Laerm;7458;49.002;8.472;2023-01-29T13:51:09;62.86;43.19;75.61;;
37279;Laerm;7458;49.002;8.472;2023-01-29T13:53:42;62.23;42.09;73.90;;
37279;Laerm;7458;49.002;8.472;2023-01-29T13:58:54;62.81;42.93;74.71;;
37279;Laerm;7458;49.002;8.472;2023-01-29T14:04:27;62.52;41.89;74.51;;
37279;Laerm;7458;49.002;8.472;2023-01-29T14:07:00;62.39;41.22;74.70;;
37279;Laerm;7458;49.002;8.472;2023-01-29T14:09:57;62.47;42.22;74.74;;
37279;Laerm;7458;49.002;8.472;2023-01-29T14:12:32;62.31;42.88;74.46;;
37279;Laerm;7458;49.002;8.472;2023-01-29T14:15:27;62.14;41.46;74.31;;
37279;Laerm;7458;49.002;8.472;2023-01-29T14:18:19;63.14;43.24;74.99;;
37279;Laerm;7458;49.002;8.472;2023-01-29T14:21:06;62.67;42.82;80.19;;
37279;Laerm;7458;49.002;8.472;2023-01-29T14:23:53;50.12;41.82;63.98;;
37279;Laerm;7458;49.002;8.472;2023-01-29T14:26:39;50.98;43.29;59.49;;
37279;Laerm;7458;49.002;8.472;2023-01-29T14:31:58;60.83;42.41;88.48;;
37279;Laerm;7458;49.002;8.472;2023-01-29T14:42:24;54.91;42.09;71.63;;
37279;Laerm;7458;49.002;8.472;2023-01-29T14:52:50;55.09;41.06;72.43;;
37279;Laerm;7458;49.002;8.472;2023-01-29T14:58:03;51.92;41.22;68.30;;
37279;Laerm;7458;49.002;8.472;2023-01-29T15:00:36;47.94;40.13;62.36;;
37279;Laerm;7458;49.002;8.472;2023-01-29T15:03:12;48.27;40.43;60.58;;
37279;Laerm;7458;49.002;8.472;2023-01-29T15:05:41;54.03;41.14;69.30;;
37279;Laerm;7458;49.002;8.472;2023-01-29T15:08:24;53.33;40.43;70.10;;
37279;Laerm;7458;49.002;8.472;2023-01-29T15:10:59;52.91;42.29;69.17;;
37279;Laerm;7458;49.002;8.472;2023-01-29T15:17:24;49.94;41.30;68.89;;
37279;Laerm;7458;49.002;8.472;2023-01-29T15:19:51;50.54;40.53;69.58;;
37279;Laerm;7458;49.002;8.472;2023-01-29T15:22:21;47.01;39.34;63.74;;
37279;Laerm;7458;49.002;8.472;2023-01-29T15:25:04;53.06;38.67;68.99;;
37279;Laerm;7458;49.002;8.472;2023-01-29T15:27:32;51.13;40.80;68.73;;
37279;Laerm;7458;49.002;8.472;2023-01-29T15:30:01;54.32;42.22;72.03;;
37279;Laerm;7458;49.002;8.472;2023-01-29T15:32:34;54.74;42.22;69.45;;
37279;Laerm;7458;49.002;8.472;2023-01-29T15:35:08;53.04;40.98;68.48;;
37279;Laerm;7458;49.002;8.472;2023-01-29T15:37:36;52.19;43.49;66.31;;
37279;Laerm;7458;49.002;8.472;2023-01-29T15:40:12;54.18;42.35;67.98;;
37279;Laerm;7458;49.002;8.472;2023-01-29T15:42:45;50.41;40.89;67.03;;
37279;Laerm;7458;49.002;8.472;2023-01-29T15:45:28;55.19;42.03;72.26;;
37279;Laerm;7458;49.002;8.472;2023-01-29T15:48:07;51.07;43.14;65.10;;
37279;Laerm;7458;49.002;8.472;2023-01-29T15:50:40;49.42;41.19;61.85;;
37279;Laerm;7458;49.002;8.472;2023-01-29T15:53:14;58.70;40.23;75.39;;
37279;Laerm;7458;49.002;8.472;2023-01-29T15:55:43;56.76;40.98;74.10;;
37279;Laerm;7458;49.002;8.472;2023-01-29T15:58:21;49.73;42.41;61.29;;
37279;Laerm;7458;49.002;8.472;2023-01-29T16:00:51;49.63;41.96;67.74;;
37279;Laerm;7458;49.002;8.472;2023-01-29T16:03:22;54.44;42.16;70.31;;
37279;Laerm;7458;49.002;8.472;2023-01-29T16:05:50;53.17;42.71;73.20;;
37279;Laerm;7458;49.002;8.472;2023-01-29T16:08:22;58.47;43.09;85.87;;
37279;Laerm;7458;49.002;8.472;2023-01-29T16:10:57;53.97;41.82;69.27;;
37279;Laerm;7458;49.002;8.472;2023-01-29T16:13:31;49.08;41.82;58.84;;
37279;Laerm;7458;49.002;8.472;2023-01-29T16:16:13;49.72;42.06;68.70;;
37279;Laerm;7458;49.002;8.472;2023-01-29T16:18:46;54.55;43.55;71.53;;
37279;Laerm;7458;49.002;8.472;2023-01-29T16:21:33;50.21;43.29;63.86;;
37279;Laerm;7458;49.002;8.472;2023-01-29T16:24:07;54.44;42.93;74.70;;
37279;Laerm;7458;49.002;8.472;2023-01-29T16:26:48;47.79;43.09;57.99;;
37279;Laerm;7458;49.002;8.472;2023-01-29T16:29:19;54.25;42.82;73.95;;
37279;Laerm;7458;49.002;8.472;2023-01-29T16:31:50;55.05;43.29;74.98;;
37279;Laerm;7458;49.002;8.472;2023-01-29T16:37:00;59.07;44.47;74.88;;
37279;Laerm;7458;49.002;8.472;2023-01-29T16:39:34;53.53;43.63;71.51;;
37279;Laerm;7458;49.002;8.472;2023-01-29T16:44:58;54.23;44.31;71.64;;
37279;Laerm;7458;49.002;8.472;2023-01-29T16:55:34;53.02;42.93;78.72;;
37279;Laerm;7458;49.002;8.472;2023-01-29T16:58:19;52.56;42.82;68.66;;
37279;Laerm;7458;49.002;8.472;2023-01-29T17:00:51;49.32;42.65;72.83;;
37279;Laerm;7458;49.002;8.472;2023-01-29T17:03:19;55.01;42.65;71.23;;
37279;Laerm;7458;49.002;8.472;2023-01-29T17:05:45;47.89;42.71;59.72;;
37279;Laerm;7458;49.002;8.472;2023-01-29T17:08:26;51.24;41.96;66.54;;